sensor_id;sensor_type;location;lat;lon;timestamp;P1;durP1;ratioP1;P2;durP2;ratioP2
4500;SDS011;2263;54.654;9.410;2023-02-02T00:01:31;19.30;;;3.07;;
4500;SDS011;2263;54.654;9.410;2023-02-02T00:03:59;11.67;;;2.17;;
4500;SDS011;2263;54.654;9.410;2023-02-02T00:06:27;24.57;;;2.40;;
4500;SDS011;2263;54.654;9.410;2023-02-02T00:08:56;22.03;;;3.03;;
4500;SDS011;2263;54.654;9.410;2023-02-02T00:11:27;17.67;;;2.20;;
4500;SDS011;2263;54.654;9.410;2023-02-02T00:13:55;20.17;;;3.20;;
4500;SDS011;2263;54.654;9.410;2023-02-02T00:18:56;15.50;;;2.10;;
4500;SDS011;2263;54.654;9.410;2023-02-02T00:21:24;19.40;;;5.90;;
4500;SDS011;2263;54.654;9.410;2023-02-02T00:23:52;12.90;;;2.40;;
4500;SDS011;2263;54.654;9.410;2023-02-02T00:26:22;17.70;;;2.87;;
4500;SDS011;2263;54.654;9.410;2023-02-02T00:28:49;10.80;;;2.80;;
4500;SDS011;2263;54.654;9.410;2023-02-02T00:31:17;14.27;;;2.20;;
4500;SDS011;2263;54.654;9.410;2023-02-02T00:33:44;15.57;;;2.13;;
4500;SDS011;2263;54.654;9.410;2023-02-02T00:36:12;22.03;;;3.50;;
4500;SDS011;2263;54.654;9.410;2023-02-02T00:38:40;17.73;;;2.83;;
4500;SDS011;2263;54.654;9.410;2023-02-02T00:41:07;12.60;;;2.33;;
4500;SDS011;2263;54.654;9.410;2023-02-02T00:43:34;17.57;;;2.30;;
4500;SDS011;2263;54.654;9.410;2023-02-02T00:46:01;16.60;;;2.47;;
4500;SDS011;2263;54.654;9.410;2023-02-02T00:48:28;12.60;;;1.70;;
4500;SDS011;2263;54.654;9.410;2023-02-02T00:50:55;21.23;;;2.23;;
4500;SDS011;2263;54.654;9.410;2023-02-02T00:53:23;13.20;;;3.90;;
4500;SDS011;2263;54.654;9.410;2023-02-02T00:55:50;13.50;;;2.27;;
4500;SDS011;2263;54.654;9.410;2023-02-02T00:58:17;17.20;;;2.17;;
4500;SDS011;2263;54.654;9.410;2023-02-02T01:00:44;10.33;;;1.80;;
4500;SDS011;2263;54.654;9.410;2023-02-02T01:03:11;13.63;;;2.37;;
4500;SDS011;2263;54.654;9.410;2023-02-02T01:05:38;16.93;;;2.77;;
4500;SDS011;2263;54.654;9.410;2023-02-02T01:08:06;18.50;;;3.23;;
4500;SDS011;2263;54.654;9.410;2023-02-02T01:10:33;4.50;;;2.30;;
4500;SDS011;2263;54.654;9.410;2023-02-02T01:13:01;22.00;;;4.47;;
4500;SDS011;2263;54.654;9.410;2023-02-02T01:15:31;8.00;;;1.87;;
4500;SDS011;2263;54.654;9.410;2023-02-02T01:17:58;21.00;;;3.50;;
4500;SDS011;2263;54.654;9.410;2023-02-02T01:20:25;10.27;;;2.90;;
4500;SDS011;2263;54.654;9.410;2023-02-02T01:22:53;17.57;;;3.00;;
4500;SDS011;2263;54.654;9.410;2023-02-02T01:25:20;16.60;;;2.53;;
4500;SDS011;2263;54.654;9.410;2023-02-02T01:27:47;18.57;;;2.70;;
4500;SDS011;2263;54.654;9.410;2023-02-02T01:30:14;22.20;;;3.43;;
4500;SDS011;2263;54.654;9.410;2023-02-02T01:32:41;17.87;;;4.33;;
4500;SDS011;2263;54.654;9.410;2023-02-02T01:35:08;16.07;;;2.70;;
4500;SDS011;2263;54.654;9.410;2023-02-02T01:37:37;27.30;;;2.90;;
4500;SDS011;2263;54.654;9.410;2023-02-02T01:40:04;17.97;;;3.97;;
4500;SDS011;2263;54.654;9.410;2023-02-02T01:42:32;9.40;;;2.50;;
4500;SDS011;2263;54.654;9.410;2023-02-02T01:47:40;20.60;;;3.00;;
4500;SDS011;2263;54.654;9.410;2023-02-02T01:50:13;11.87;;;1.87;;
4500;SDS011;2263;54.654;9.410;2023-02-02T01:52:42;16.50;;;3.03;;
4500;SDS011;2263;54.654;9.410;2023-02-02T01:55:13;15.20;;;2.60;;
4500;SDS011;2263;54.654;9.410;2023-02-02T01:57:56;7.00;;;1.70;;
4500;SDS011;2263;54.654;9.410;2023-02-02T02:00:27;14.90;;;3.50;;
4500;SDS011;2263;54.654;9.410;2023-02-02T02:02:56;21.20;;;2.80;;
4500;SDS011;2263;54.654;9.410;2023-02-02T02:05:32;14.13;;;2.43;;
4500;SDS011;2263;54.654;9.410;2023-02-02T02:08:11;15.47;;;2.77;;
4500;SDS011;2263;54.654;9.410;2023-02-02T02:10:47;6.80;;;2.00;;
4500;SDS011;2263;54.654;9.410;2023-02-02T02:13:14;7.30;;;1.53;;
4500;SDS011;2263;54.654;9.410;2023-02-02T02:15:44;26.47;;;4.60;;
4500;SDS011;2263;54.654;9.410;2023-02-02T02:21:27;7.93;;;2.93;;
4500;SDS011;2263;54.654;9.410;2023-02-02T02:35:55;10.57;;;1.93;;
4500;SDS011;2263;54.654;9.410;2023-02-02T02:38:33;23.57;;;3.07;;
4500;SDS011;2263;54.654;9.410;2023-02-02T02:41:10;9.30;;;2.40;;
4500;SDS011;2263;54.654;9.410;2023-02-02T02:43:51;10.00;;;2.47;;
4500;SDS011;2263;54.654;9.410;2023-02-02T02:46:40;18.87;;;2.73;;
4500;SDS011;2263;54.654;9.410;2023-02-02T02:49:11;13.33;;;2.13;;
4500;SDS011;2263;54.654;9.410;2023-02-02T02:51:43;18.47;;;3.00;;
4500;SDS011;2263;54.654;9.410;2023-02-02T03:02:42;18.33;;;3.63;;
4500;SDS011;2263;54.654;9.410;2023-02-02T03:10:36;27.37;;;5.37;;
4500;SDS011;2263;54.654;9.410;2023-02-02T03:13:07;18.17;;;2.40;;
4500;SDS011;2263;54.654;9.410;2023-02-02T03:15:39;12.20;;;2.83;;
4500;SDS011;2263;54.654;9.410;2023-02-02T03:18:07;20.40;;;4.70;;
4500;SDS011;2263;54.654;9.410;2023-02-02T03:20:34;16.23;;;2.80;;
4500;SDS011;2263;54.654;9.410;2023-02-02T03:23:02;15.10;;;2.67;;
4500;SDS011;2263;54.654;9.410;2023-02-02T03:25:29;19.67;;;2.43;;
4500;SDS011;2263;54.654;9.410;2023-02-02T03:27:58;11.83;;;2.87;;
4500;SDS011;2263;54.654;9.410;2023-02-02T03:30:26;20.67;;;2.53;;
4500;SDS011;2263;54.654;9.410;2023-02-02T03:32:53;12.00;;;2.33;;
4500;SDS011;2263;54.654;9.410;2023-02-02T03:35:20;13.27;;;2.70;;
4500;SDS011;2263;54.654;9.410;2023-02-02T03:37:48;12.73;;;2.00;;
4500;SDS011;2263;54.654;9.410;2023-02-02T03:40:15;11.80;;;2.30;;
4500;SDS011;2263;54.654;9.410;2023-02-02T03:42:43;22.13;;;3.33;;
4500;SDS011;2263;54.654;9.410;2023-02-02T03:45:10;12.57;;;2.20;;
4500;SDS011;2263;54.654;9.410;2023-02-02T03:47:37;29.33;;;3.50;;
4500;SDS011;2263;54.654;9.410;2023-02-02T03:50:07;13.73;;;2.77;;
4500;SDS011;2263;54.654;9.410;2023-02-02T03:52:35;10.73;;;2.37;;
4500;SDS011;2263;54.654;9.410;2023-02-02T03:55:02;8.93;;;1.60;;
4500;SDS011;2263;54.654;9.410;2023-02-02T03:57:30;12.37;;;1.50;;
4500;SDS011;2263;54.654;9.410;2023-02-02T03:59:57;23.30;;;4.17;;
4500;SDS011;2263;54.654;9.410;2023-02-02T04:02:24;8.67;;;2.70;;
4500;SDS011;2263;54.654;9.410;2023-02-02T04:04:51;9.27;;;2.17;;
4500;SDS011;2263;54.654;9.410;2023-02-02T04:07:19;8.50;;;1.87;;
4500;SDS011;2263;54.654;9.410;2023-02-02T04:09:46;11.97;;;1.40;;
4500;SDS011;2263;54.654;9.410;2023-02-02T04:12:16;6.53;;;1.97;;
4500;SDS011;2263;54.654;9.410;2023-02-02T04:14:43;4.97;;;1.67;;
4500;SDS011;2263;54.654;9.410;2023-02-02T04:17:10;13.10;;;2.03;;
4500;SDS011;2263;54.654;9.410;2023-02-02T04:19:37;13.73;;;1.47;;
4500;SDS011;2263;54.654;9.410;2023-02-02T04:22:04;10.83;;;1.53;;
4500;SDS011;2263;54.654;9.410;2023-02-02T04:24:31;7.77;;;1.93;;
4500;SDS011;2263;54.654;9.410;2023-02-02T04:26:58;11.73;;;2.67;;
4500;SDS011;2263;54.654;9.410;2023-02-02T04:29:25;10.33;;;1.93;;
4500;SDS011;2263;54.654;9.410;2023-02-02T04:31:52;7.87;;;1.47;;
4500;SDS011;2263;54.654;9.410;2023-02-02T04:34:20;7.00;;;1.30;;
4500;SDS011;2263;54.654;9.410;2023-02-02T04:36:47;10.37;;;1.63;;
4500;SDS011;2263;54.654;9.410;2023-02-02T04:39:14;9.83;;;1.40;;
4500;SDS011;2263;54.654;9.410;2023-02-02T04:41:41;9.27;;;1.90;;
4500;SDS011;2263;54.654;9.410;2023-02-02T04:44:14;10.47;;;1.47;;
4500;SDS011;2263;54.654;9.410;2023-02-02T04:46:42;10.27;;;1.93;;
4500;SDS011;2263;54.654;9.410;2023-02-02T04:49:10;5.20;;;2.13;;
4500;SDS011;2263;54.654;9.410;2023-02-02T04:51:38;8.67;;;1.50;;
4500;SDS011;2263;54.654;9.410;2023-02-02T04:54:09;13.53;;;3.13;;
4500;SDS011;2263;54.654;9.410;2023-02-02T04:56:36;11.43;;;2.93;;
4500;SDS011;2263;54.654;9.410;2023-02-02T04:59:03;9.80;;;2.27;;
4500;SDS011;2263;54.654;9.410;2023-02-02T05:01:33;21.30;;;3.83;;
4500;SDS011;2263;54.654;9.410;2023-02-02T05:04:03;8.20;;;2.23;;
4500;SDS011;2263;54.654;9.410;2023-02-02T05:06:30;11.07;;;3.20;;
4500;SDS011;2263;54.654;9.410;2023-02-02T05:08:57;9.40;;;2.23;;
4500;SDS011;2263;54.654;9.410;2023-02-02T05:11:25;11.73;;;2.40;;
4500;SDS011;2263;54.654;9.410;2023-02-02T05:13:52;5.50;;;1.93;;
4500;SDS011;2263;54.654;9.410;2023-02-02T05:16:21;4.20;;;2.30;;
4500;SDS011;2263;54.654;9.410;2023-02-02T05:18:49;12.33;;;2.63;;
4500;SDS011;2263;54.654;9.410;2023-02-02T05:21:18;10.13;;;2.00;;
4500;SDS011;2263;54.654;9.410;2023-02-02T05:23:46;12.97;;;2.53;;
4500;SDS011;2263;54.654;9.410;2023-02-02T05:26:15;9.73;;;2.03;;
4500;SDS011;2263;54.654;9.410;2023-02-02T05:28:44;15.80;;;2.10;;
4500;SDS011;2263;54.654;9.410;2023-02-02T05:31:12;7.20;;;1.60;;
4500;SDS011;2263;54.654;9.410;2023-02-02T05:33:41;16.83;;;2.43;;
4500;SDS011;2263;54.654;9.410;2023-02-02T05:36:09;11.03;;;3.10;;
4500;SDS011;2263;54.654;9.410;2023-02-02T05:38:36;8.00;;;2.33;;
4500;SDS011;2263;54.654;9.410;2023-02-02T05:41:04;5.73;;;2.00;;
4500;SDS011;2263;54.654;9.410;2023-02-02T05:43:31;9.73;;;1.30;;
4500;SDS011;2263;54.654;9.410;2023-02-02T05:45:59;2.50;;;1.40;;
4500;SDS011;2263;54.654;9.410;2023-02-02T05:48:27;7.73;;;1.50;;
4500;SDS011;2263;54.654;9.410;2023-02-02T05:50:55;7.93;;;1.97;;
4500;SDS011;2263;54.654;9.410;2023-02-02T05:53:50;5.80;;;1.33;;
4500;SDS011;2263;54.654;9.410;2023-02-02T05:56:17;9.80;;;2.10;;
4500;SDS011;2263;54.654;9.410;2023-02-02T05:58:47;12.20;;;2.33;;
4500;SDS011;2263;54.654;9.410;2023-02-02T06:01:16;7.57;;;1.63;;
4500;SDS011;2263;54.654;9.410;2023-02-02T06:03:44;15.27;;;2.77;;
4500;SDS011;2263;54.654;9.410;2023-02-02T06:06:11;4.67;;;1.10;;
4500;SDS011;2263;54.654;9.410;2023-02-02T06:08:39;11.13;;;1.60;;
4500;SDS011;2263;54.654;9.410;2023-02-02T06:11:11;11.30;;;2.43;;
4500;SDS011;2263;54.654;9.410;2023-02-02T06:13:40;6.80;;;3.10;;
4500;SDS011;2263;54.654;9.410;2023-02-02T06:16:11;6.40;;;3.07;;
4500;SDS011;2263;54.654;9.410;2023-02-02T06:18:38;21.00;;;2.93;;
4500;SDS011;2263;54.654;9.410;2023-02-02T06:21:05;6.57;;;3.03;;
4500;SDS011;2263;54.654;9.410;2023-02-02T06:23:33;6.50;;;2.93;;
4500;SDS011;2263;54.654;9.410;2023-02-02T06:26:00;12.83;;;5.40;;
4500;SDS011;2263;54.654;9.410;2023-02-02T06:28:32;11.50;;;5.37;;
4500;SDS011;2263;54.654;9.410;2023-02-02T06:31:02;12.80;;;5.93;;
4500;SDS011;2263;54.654;9.410;2023-02-02T06:33:31;15.47;;;7.23;;
4500;SDS011;2263;54.654;9.410;2023-02-02T06:36:02;15.60;;;6.67;;
4500;SDS011;2263;54.654;9.410;2023-02-02T06:38:31;13.67;;;5.60;;
4500;SDS011;2263;54.654;9.410;2023-02-02T06:40:59;11.93;;;5.20;;
4500;SDS011;2263;54.654;9.410;2023-02-02T06:43:27;12.53;;;4.80;;
4500;SDS011;2263;54.654;9.410;2023-02-02T06:45:55;4.97;;;4.33;;
4500;SDS011;2263;54.654;9.410;2023-02-02T06:48:24;11.97;;;4.37;;
4500;SDS011;2263;54.654;9.410;2023-02-02T06:50:51;17.03;;;4.30;;
4500;SDS011;2263;54.654;9.410;2023-02-02T06:53:19;16.17;;;4.47;;
4500;SDS011;2263;54.654;9.410;2023-02-02T06:56:00;14.20;;;3.97;;
4500;SDS011;2263;54.654;9.410;2023-02-02T06:58:29;9.23;;;3.53;;
4500;SDS011;2263;54.654;9.410;2023-02-02T07:01:01;5.90;;;2.97;;
4500;SDS011;2263;54.654;9.410;2023-02-02T07:03:32;5.53;;;2.83;;
4500;SDS011;2263;54.654;9.410;2023-02-02T07:06:10;4.90;;;1.90;;
4500;SDS011;2263;54.654;9.410;2023-02-02T07:08:39;6.30;;;2.60;;
4500;SDS011;2263;54.654;9.410;2023-02-02T07:11:07;9.23;;;2.53;;
4500;SDS011;2263;54.654;9.410;2023-02-02T07:13:44;14.20;;;2.87;;
4500;SDS011;2263;54.654;9.410;2023-02-02T07:16:12;4.27;;;1.87;;
4500;SDS011;2263;54.654;9.410;2023-02-02T07:18:40;7.33;;;2.63;;
4500;SDS011;2263;54.654;9.410;2023-02-02T07:21:15;5.53;;;2.20;;
4500;SDS011;2263;54.654;9.410;2023-02-02T07:23:44;5.07;;;1.40;;
4500;SDS011;2263;54.654;9.410;2023-02-02T07:26:12;5.57;;;2.27;;
4500;SDS011;2263;54.654;9.410;2023-02-02T07:28:40;19.40;;;7.77;;
4500;SDS011;2263;54.654;9.410;2023-02-02T07:31:26;19.37;;;7.60;;
4500;SDS011;2263;54.654;9.410;2023-02-02T07:33:56;29.63;;;11.83;;
4500;SDS011;2263;54.654;9.410;2023-02-02T07:36:23;22.50;;;9.80;;
4500;SDS011;2263;54.654;9.410;2023-02-02T07:38:51;20.17;;;10.90;;
4500;SDS011;2263;54.654;9.410;2023-02-02T07:41:20;22.43;;;9.00;;
4500;SDS011;2263;54.654;9.410;2023-02-02T07:43:47;18.17;;;9.83;;
4500;SDS011;2263;54.654;9.410;2023-02-02T07:46:16;27.77;;;10.30;;
4500;SDS011;2263;54.654;9.410;2023-02-02T07:48:43;10.20;;;7.67;;
4500;SDS011;2263;54.654;9.410;2023-02-02T07:51:11;17.33;;;8.87;;
4500;SDS011;2263;54.654;9.410;2023-02-02T07:53:44;12.73;;;7.90;;
4500;SDS011;2263;54.654;9.410;2023-02-02T07:58:42;13.43;;;6.30;;
4500;SDS011;2263;54.654;9.410;2023-02-02T08:01:10;17.20;;;7.30;;
4500;SDS011;2263;54.654;9.410;2023-02-02T08:03:39;15.47;;;4.97;;
4500;SDS011;2263;54.654;9.410;2023-02-02T08:06:17;13.80;;;5.00;;
4500;SDS011;2263;54.654;9.410;2023-02-02T08:08:46;12.33;;;4.53;;
4500;SDS011;2263;54.654;9.410;2023-02-02T08:11:15;116.97;;;86.00;;
4500;SDS011;2263;54.654;9.410;2023-02-02T08:13:53;87.00;;;62.53;;
4500;SDS011;2263;54.654;9.410;2023-02-02T08:16:24;68.90;;;51.67;;
4500;SDS011;2263;54.654;9.410;2023-02-02T08:18:54;53.90;;;40.83;;
4500;SDS011;2263;54.654;9.410;2023-02-02T08:21:21;55.10;;;36.40;;
4500;SDS011;2263;54.654;9.410;2023-02-02T08:23:50;47.53;;;32.50;;
4500;SDS011;2263;54.654;9.410;2023-02-02T08:26:25;40.47;;;29.20;;
4500;SDS011;2263;54.654;9.410;2023-02-02T08:28:57;41.43;;;29.37;;
4500;SDS011;2263;54.654;9.410;2023-02-02T08:31:29;32.57;;;23.30;;
4500;SDS011;2263;54.654;9.410;2023-02-02T08:34:00;33.80;;;23.63;;
4500;SDS011;2263;54.654;9.410;2023-02-02T08:36:28;30.67;;;23.43;;
4500;SDS011;2263;54.654;9.410;2023-02-02T08:39:00;30.33;;;20.93;;
4500;SDS011;2263;54.654;9.410;2023-02-02T08:41:29;29.10;;;20.10;;
4500;SDS011;2263;54.654;9.410;2023-02-02T08:43:57;22.70;;;17.80;;
4500;SDS011;2263;54.654;9.410;2023-02-02T08:46:24;24.37;;;16.47;;
4500;SDS011;2263;54.654;9.410;2023-02-02T08:48:51;24.97;;;18.20;;
4500;SDS011;2263;54.654;9.410;2023-02-02T08:51:18;21.50;;;15.80;;
4500;SDS011;2263;54.654;9.410;2023-02-02T08:53:46;20.00;;;14.70;;
4500;SDS011;2263;54.654;9.410;2023-02-02T08:56:14;21.27;;;14.10;;
4500;SDS011;2263;54.654;9.410;2023-02-02T08:58:47;23.13;;;13.60;;
4500;SDS011;2263;54.654;9.410;2023-02-02T09:01:20;21.87;;;13.20;;
4500;SDS011;2263;54.654;9.410;2023-02-02T09:03:58;16.00;;;11.40;;
4500;SDS011;2263;54.654;9.410;2023-02-02T09:06:31;19.60;;;11.73;;
4500;SDS011;2263;54.654;9.410;2023-02-02T09:09:06;12.50;;;10.17;;
4500;SDS011;2263;54.654;9.410;2023-02-02T09:11:34;13.50;;;10.17;;
4500;SDS011;2263;54.654;9.410;2023-02-02T09:14:02;12.93;;;9.90;;
4500;SDS011;2263;54.654;9.410;2023-02-02T09:16:32;18.93;;;10.70;;
4500;SDS011;2263;54.654;9.410;2023-02-02T09:19:01;12.87;;;8.90;;
4500;SDS011;2263;54.654;9.410;2023-02-02T09:21:28;11.30;;;7.10;;
4500;SDS011;2263;54.654;9.410;2023-02-02T09:23:55;16.83;;;7.83;;
4500;SDS011;2263;54.654;9.410;2023-02-02T09:26:26;15.13;;;6.10;;
4500;SDS011;2263;54.654;9.410;2023-02-02T09:28:55;6.97;;;5.40;;
4500;SDS011;2263;54.654;9.410;2023-02-02T09:31:25;9.97;;;5.20;;
4500;SDS011;2263;54.654;9.410;2023-02-02T09:33:52;7.03;;;4.50;;
4500;SDS011;2263;54.654;9.410;2023-02-02T09:36:22;4.20;;;3.80;;
4500;SDS011;2263;54.654;9.410;2023-02-02T09:38:50;8.00;;;4.73;;
4500;SDS011;2263;54.654;9.410;2023-02-02T09:52:41;7.73;;;2.20;;
4500;SDS011;2263;54.654;9.410;2023-02-02T09:55:15;9.07;;;3.10;;
4500;SDS011;2263;54.654;9.410;2023-02-02T10:00:55;17.07;;;2.80;;
4500;SDS011;2263;54.654;9.410;2023-02-02T10:03:40;12.00;;;2.47;;
4500;SDS011;2263;54.654;9.410;2023-02-02T10:15:03;2.90;;;1.80;;
4500;SDS011;2263;54.654;9.410;2023-02-02T10:17:46;7.20;;;1.73;;
4500;SDS011;2263;54.654;9.410;2023-02-02T10:20:42;3.93;;;2.23;;
4500;SDS011;2263;54.654;9.410;2023-02-02T10:23:41;10.17;;;1.93;;
4500;SDS011;2263;54.654;9.410;2023-02-02T10:31:43;5.10;;;2.27;;
4500;SDS011;2263;54.654;9.410;2023-02-02T10:37:48;8.37;;;1.50;;
4500;SDS011;2263;54.654;9.410;2023-02-02T10:40:35;9.67;;;1.87;;
4500;SDS011;2263;54.654;9.410;2023-02-02T10:43:14;9.00;;;1.83;;
4500;SDS011;2263;54.654;9.410;2023-02-02T10:46:02;7.90;;;1.83;;
4500;SDS011;2263;54.654;9.410;2023-02-02T10:48:32;7.03;;;1.63;;
4500;SDS011;2263;54.654;9.410;2023-02-02T10:51:09;6.80;;;2.60;;
4500;SDS011;2263;54.654;9.410;2023-02-02T10:53:47;6.73;;;2.30;;
4500;SDS011;2263;54.654;9.410;2023-02-02T10:56:36;4.90;;;1.47;;
4500;SDS011;2263;54.654;9.410;2023-02-02T10:59:13;12.37;;;1.63;;
4500;SDS011;2263;54.654;9.410;2023-02-02T11:01:44;8.00;;;1.07;;
4500;SDS011;2263;54.654;9.410;2023-02-02T11:04:12;14.00;;;1.50;;
4500;SDS011;2263;54.654;9.410;2023-02-02T11:06:57;11.60;;;1.63;;
4500;SDS011;2263;54.654;9.410;2023-02-02T11:09:29;7.73;;;1.10;;
4500;SDS011;2263;54.654;9.410;2023-02-02T11:12:09;9.30;;;1.50;;
4500;SDS011;2263;54.654;9.410;2023-02-02T11:14:48;13.03;;;1.33;;
4500;SDS011;2263;54.654;9.410;2023-02-02T11:17:19;3.30;;;0.93;;
4500;SDS011;2263;54.654;9.410;2023-02-02T11:19:47;5.43;;;1.20;;
4500;SDS011;2263;54.654;9.410;2023-02-02T11:22:32;6.10;;;1.10;;
4500;SDS011;2263;54.654;9.410;2023-02-02T11:27:33;14.70;;;1.37;;
4500;SDS011;2263;54.654;9.410;2023-02-02T11:33:07;3.07;;;0.90;;
4500;SDS011;2263;54.654;9.410;2023-02-02T11:35:55;3.77;;;1.10;;
4500;SDS011;2263;54.654;9.410;2023-02-02T11:38:24;8.33;;;1.17;;
4500;SDS011;2263;54.654;9.410;2023-02-02T11:43:33;5.30;;;2.20;;
4500;SDS011;2263;54.654;9.410;2023-02-02T11:48:59;9.40;;;2.20;;
4500;SDS011;2263;54.654;9.410;2023-02-02T11:51:38;10.30;;;2.03;;
4500;SDS011;2263;54.654;9.410;2023-02-02T11:54:06;9.50;;;1.40;;
4500;SDS011;2263;54.654;9.410;2023-02-02T11:56:46;4.53;;;1.27;;
4500;SDS011;2263;54.654;9.410;2023-02-02T12:02:18;6.77;;;1.40;;
4500;SDS011;2263;54.654;9.410;2023-02-02T12:04:50;9.40;;;1.43;;
4500;SDS011;2263;54.654;9.410;2023-02-02T12:07:26;3.50;;;1.63;;
4500;SDS011;2263;54.654;9.410;2023-02-02T12:09:58;4.40;;;1.43;;
4500;SDS011;2263;54.654;9.410;2023-02-02T12:17:45;10.23;;;1.67;;
4500;SDS011;2263;54.654;9.410;2023-02-02T12:25:53;4.47;;;1.43;;
4500;SDS011;2263;54.654;9.410;2023-02-02T12:45:31;8.07;;;3.13;;
4500;SDS011;2263;54.654;9.410;2023-02-02T12:54:10;8.97;;;2.77;;
4500;SDS011;2263;54.654;9.410;2023-02-02T13:10:54;5.17;;;1.97;;
4500;SDS011;2263;54.654;9.410;2023-02-02T13:13:37;3.83;;;1.60;;
4500;SDS011;2263;54.654;9.410;2023-02-02T13:16:10;15.87;;;3.60;;
4500;SDS011;2263;54.654;9.410;2023-02-02T13:18:55;8.23;;;1.53;;
4500;SDS011;2263;54.654;9.410;2023-02-02T13:21:27;2.50;;;1.17;;
4500;SDS011;2263;54.654;9.410;2023-02-02T13:24:01;8.50;;;1.63;;
4500;SDS011;2263;54.654;9.410;2023-02-02T13:26:33;7.50;;;1.63;;
4500;SDS011;2263;54.654;9.410;2023-02-02T13:31:56;2.37;;;1.00;;
4500;SDS011;2263;54.654;9.410;2023-02-02T13:37:23;3.67;;;0.97;;
4500;SDS011;2263;54.654;9.410;2023-02-02T13:57:17;3.13;;;1.10;;
4500;SDS011;2263;54.654;9.410;2023-02-02T14:02:28;8.23;;;1.40;;
4500;SDS011;2263;54.654;9.410;2023-02-02T14:04:56;6.30;;;1.07;;
4500;SDS011;2263;54.654;9.410;2023-02-02T14:10:18;2.30;;;1.27;;
4500;SDS011;2263;54.654;9.410;2023-02-02T14:12:52;2.63;;;1.07;;
4500;SDS011;2263;54.654;9.410;2023-02-02T14:15:37;5.93;;;1.10;;
4500;SDS011;2263;54.654;9.410;2023-02-02T14:18:05;3.63;;;1.00;;
4500;SDS011;2263;54.654;9.410;2023-02-02T14:26:12;3.30;;;0.80;;
4500;SDS011;2263;54.654;9.410;2023-02-02T14:34:36;4.43;;;1.30;;
4500;SDS011;2263;54.654;9.410;2023-02-02T14:45:48;2.70;;;1.13;;
4500;SDS011;2263;54.654;9.410;2023-02-02T14:48:48;1.77;;;1.07;;
4500;SDS011;2263;54.654;9.410;2023-02-02T14:51:42;5.50;;;0.80;;
4500;SDS011;2263;54.654;9.410;2023-02-02T14:54:22;5.70;;;1.17;;
4500;SDS011;2263;54.654;9.410;2023-02-02T14:57:03;2.90;;;0.80;;
4500;SDS011;2263;54.654;9.410;2023-02-02T14:59:52;2.27;;;0.90;;
4500;SDS011;2263;54.654;9.410;2023-02-02T15:02:22;3.33;;;1.17;;
4500;SDS011;2263;54.654;9.410;2023-02-02T15:05:33;4.87;;;0.80;;
4500;SDS011;2263;54.654;9.410;2023-02-02T15:13:51;3.77;;;1.10;;
4500;SDS011;2263;54.654;9.410;2023-02-02T15:16:25;6.70;;;0.80;;
4500;SDS011;2263;54.654;9.410;2023-02-02T15:19:07;1.87;;;0.80;;
4500;SDS011;2263;54.654;9.410;2023-02-02T15:21:48;2.57;;;0.73;;
4500;SDS011;2263;54.654;9.410;2023-02-02T15:24:21;3.33;;;0.80;;
4500;SDS011;2263;54.654;9.410;2023-02-02T15:26:51;9.57;;;2.63;;
4500;SDS011;2263;54.654;9.410;2023-02-02T15:29:54;4.80;;;1.00;;
4500;SDS011;2263;54.654;9.410;2023-02-02T15:32:16;6.30;;;0.90;;
4500;SDS011;2263;54.654;9.410;2023-02-02T15:34:48;14.73;;;1.23;;
4500;SDS011;2263;54.654;9.410;2023-02-02T15:37:36;4.83;;;1.17;;
4500;SDS011;2263;54.654;9.410;2023-02-02T15:40:09;6.07;;;1.43;;
4500;SDS011;2263;54.654;9.410;2023-02-02T15:42:44;10.13;;;1.03;;
4500;SDS011;2263;54.654;9.410;2023-02-02T15:47:55;6.17;;;1.33;;
4500;SDS011;2263;54.654;9.410;2023-02-02T15:50:23;4.10;;;1.20;;
4500;SDS011;2263;54.654;9.410;2023-02-02T15:52:52;13.67;;;2.70;;
4500;SDS011;2263;54.654;9.410;2023-02-02T15:55:21;11.10;;;1.03;;
4500;SDS011;2263;54.654;9.410;2023-02-02T15:57:51;4.13;;;0.97;;
4500;SDS011;2263;54.654;9.410;2023-02-02T16:05:46;5.17;;;1.30;;
4500;SDS011;2263;54.654;9.410;2023-02-02T16:08:23;3.50;;;0.70;;
4500;SDS011;2263;54.654;9.410;2023-02-02T16:11:09;6.70;;;1.10;;
4500;SDS011;2263;54.654;9.410;2023-02-02T16:13:42;4.57;;;1.30;;
4500;SDS011;2263;54.654;9.410;2023-02-02T16:24:42;5.47;;;0.90;;
4500;SDS011;2263;54.654;9.410;2023-02-02T16:27:14;9.50;;;2.50;;
4500;SDS011;2263;54.654;9.410;2023-02-02T16:29:46;5.60;;;1.90;;
4500;SDS011;2263;54.654;9.410;2023-02-02T16:32:30;14.87;;;3.63;;
4500;SDS011;2263;54.654;9.410;2023-02-02T16:35:01;7.07;;;1.63;;
4500;SDS011;2263;54.654;9.410;2023-02-02T16:37:32;3.00;;;1.13;;
4500;SDS011;2263;54.654;9.410;2023-02-02T16:40:18;9.57;;;2.20;;
4500;SDS011;2263;54.654;9.410;2023-02-02T16:45:53;14.33;;;1.67;;
4500;SDS011;2263;54.654;9.410;2023-02-02T16:48:35;4.57;;;1.47;;
4500;SDS011;2263;54.654;9.410;2023-02-02T16:56:42;13.10;;;2.07;;
4500;SDS011;2263;54.654;9.410;2023-02-02T17:01:43;9.77;;;1.80;;
4500;SDS011;2263;54.654;9.410;2023-02-02T17:04:17;11.30;;;2.03;;
4500;SDS011;2263;54.654;9.410;2023-02-02T17:06:50;11.60;;;4.00;;
4500;SDS011;2263;54.654;9.410;2023-02-02T17:09:26;5.27;;;1.50;;
4500;SDS011;2263;54.654;9.410;2023-02-02T17:14:59;10.80;;;2.57;;
4500;SDS011;2263;54.654;9.410;2023-02-02T17:17:46;6.40;;;1.70;;
4500;SDS011;2263;54.654;9.410;2023-02-02T17:20:17;9.80;;;2.00;;
4500;SDS011;2263;54.654;9.410;2023-02-02T17:22:45;11.40;;;3.27;;
4500;SDS011;2263;54.654;9.410;2023-02-02T17:25:20;4.97;;;1.70;;
4500;SDS011;2263;54.654;9.410;2023-02-02T17:27:53;12.93;;;2.10;;
4500;SDS011;2263;54.654;9.410;2023-02-02T17:30:21;4.07;;;1.80;;
4500;SDS011;2263;54.654;9.410;2023-02-02T17:32:48;8.27;;;2.30;;
4500;SDS011;2263;54.654;9.410;2023-02-02T17:35:18;7.47;;;2.20;;
4500;SDS011;2263;54.654;9.410;2023-02-02T17:37:48;6.73;;;2.70;;
4500;SDS011;2263;54.654;9.410;2023-02-02T17:40:18;13.27;;;2.60;;
4500;SDS011;2263;54.654;9.410;2023-02-02T17:42:48;6.27;;;2.17;;
4500;SDS011;2263;54.654;9.410;2023-02-02T17:45:21;10.43;;;1.93;;
4500;SDS011;2263;54.654;9.410;2023-02-02T17:47:54;6.30;;;1.90;;
4500;SDS011;2263;54.654;9.410;2023-02-02T17:50:21;8.30;;;2.30;;
4500;SDS011;2263;54.654;9.410;2023-02-02T17:52:49;9.53;;;3.43;;
4500;SDS011;2263;54.654;9.410;2023-02-02T17:57:52;6.03;;;2.33;;
4500;SDS011;2263;54.654;9.410;2023-02-02T18:00:20;15.47;;;4.80;;
4500;SDS011;2263;54.654;9.410;2023-02-02T18:02:54;7.00;;;1.83;;
4500;SDS011;2263;54.654;9.410;2023-02-02T18:05:32;4.27;;;2.43;;
4500;SDS011;2263;54.654;9.410;2023-02-02T18:08:00;6.07;;;2.20;;
4500;SDS011;2263;54.654;9.410;2023-02-02T18:10:27;19.57;;;5.20;;
4500;SDS011;2263;54.654;9.410;2023-02-02T18:12:58;7.23;;;2.93;;
4500;SDS011;2263;54.654;9.410;2023-02-02T18:15:25;5.30;;;2.13;;
4500;SDS011;2263;54.654;9.410;2023-02-02T18:17:53;7.03;;;1.80;;
4500;SDS011;2263;54.654;9.410;2023-02-02T18:20:22;9.83;;;2.60;;
4500;SDS011;2263;54.654;9.410;2023-02-02T18:22:50;7.10;;;2.27;;
4500;SDS011;2263;54.654;9.410;2023-02-02T18:25:17;7.70;;;2.70;;
4500;SDS011;2263;54.654;9.410;2023-02-02T18:27:44;10.57;;;2.37;;
4500;SDS011;2263;54.654;9.410;2023-02-02T18:30:12;12.90;;;2.07;;
4500;SDS011;2263;54.654;9.410;2023-02-02T18:32:40;7.83;;;1.63;;
4500;SDS011;2263;54.654;9.410;2023-02-02T18:35:08;5.80;;;1.93;;
4500;SDS011;2263;54.654;9.410;2023-02-02T18:37:36;4.97;;;2.00;;
4500;SDS011;2263;54.654;9.410;2023-02-02T18:40:04;18.90;;;2.67;;
4500;SDS011;2263;54.654;9.410;2023-02-02T18:42:34;5.43;;;2.00;;
4500;SDS011;2263;54.654;9.410;2023-02-02T18:45:02;11.77;;;2.20;;
4500;SDS011;2263;54.654;9.410;2023-02-02T18:47:30;8.63;;;2.20;;
4500;SDS011;2263;54.654;9.410;2023-02-02T18:49:57;5.10;;;1.50;;
4500;SDS011;2263;54.654;9.410;2023-02-02T18:52:24;17.10;;;1.80;;
4500;SDS011;2263;54.654;9.410;2023-02-02T18:54:51;2.60;;;1.63;;
4500;SDS011;2263;54.654;9.410;2023-02-02T18:57:18;9.33;;;2.13;;
4500;SDS011;2263;54.654;9.410;2023-02-02T18:59:45;13.63;;;2.60;;
4500;SDS011;2263;54.654;9.410;2023-02-02T19:02:13;7.80;;;2.13;;
4500;SDS011;2263;54.654;9.410;2023-02-02T19:04:43;13.07;;;2.20;;
4500;SDS011;2263;54.654;9.410;2023-02-02T19:07:29;2.93;;;1.40;;
4500;SDS011;2263;54.654;9.410;2023-02-02T19:10:16;8.43;;;1.83;;
4500;SDS011;2263;54.654;9.410;2023-02-02T19:15:22;12.57;;;1.77;;